sensor_id;sensor_type;location;lat;lon;timestamp;temperature;humidity
69082;DHT22;56184;51.986;5.760;2022-11-15T00:02:07;8.30;97.30
69082;DHT22;56184;51.986;5.760;2022-11-15T00:04:33;8.30;97.40
69082;DHT22;56184;51.986;5.760;2022-11-15T00:06:59;8.20;97.50
69082;DHT22;56184;51.986;5.760;2022-11-15T00:09:24;8.30;97.50
69082;DHT22;56184;51.986;5.760;2022-11-15T00:11:51;8.30;97.70
69082;DHT22;56184;51.986;5.760;2022-11-15T00:14:23;8.30;98.00
69082;DHT22;56184;51.986;5.760;2022-11-15T00:16:48;8.30;98.00
69082;DHT22;56184;51.986;5.760;2022-11-15T00:19:14;8.30;97.70
69082;DHT22;56184;51.986;5.760;2022-11-15T00:21:39;8.40;98.10
69082;DHT22;56184;51.986;5.760;2022-11-15T00:24:06;8.40;98.00
69082;DHT22;56184;51.986;5.760;2022-11-15T00:26:32;8.40;97.70
69082;DHT22;56184;51.986;5.760;2022-11-15T00:28:57;8.40;97.90
69082;DHT22;56184;51.986;5.760;2022-11-15T00:31:23;8.40;97.80
69082;DHT22;56184;51.986;5.760;2022-11-15T00:33:48;8.50;97.60
69082;DHT22;56184;51.986;5.760;2022-11-15T00:36:14;8.50;97.60
69082;DHT22;56184;51.986;5.760;2022-11-15T00:38:40;8.50;97.60
69082;DHT22;56184;51.986;5.760;2022-11-15T00:41:07;8.50;97.90
69082;DHT22;56184;51.986;5.760;2022-11-15T00:43:33;8.50;97.80
69082;DHT22;56184;51.986;5.760;2022-11-15T00:46:00;8.50;98.00
69082;DHT22;56184;51.986;5.760;2022-11-15T00:48:27;8.50;98.20
69082;DHT22;56184;51.986;5.760;2022-11-15T00:50:53;8.50;98.20
69082;DHT22;56184;51.986;5.760;2022-11-15T00:53:19;8.50;98.20
69082;DHT22;56184;51.986;5.760;2022-11-15T00:55:46;8.60;98.20
69082;DHT22;56184;51.986;5.760;2022-11-15T00:58:12;8.60;98.30
69082;DHT22;56184;51.986;5.760;2022-11-15T01:00:37;8.60;98.60
69082;DHT22;56184;51.986;5.760;2022-11-15T01:03:03;8.60;98.30
69082;DHT22;56184;51.986;5.760;2022-11-15T01:05:28;8.60;98.20
69082;DHT22;56184;51.986;5.760;2022-11-15T01:07:55;8.60;98.20
69082;DHT22;56184;51.986;5.760;2022-11-15T01:10:22;8.60;98.10
69082;DHT22;56184;51.986;5.760;2022-11-15T01:12:48;8.60;98.30
69082;DHT22;56184;51.986;5.760;2022-11-15T01:15:13;8.60;98.50
69082;DHT22;56184;51.986;5.760;2022-11-15T01:17:39;8.60;98.50
69082;DHT22;56184;51.986;5.760;2022-11-15T01:20:05;8.70;98.50
69082;DHT22;56184;51.986;5.760;2022-11-15T01:22:30;8.70;98.40
69082;DHT22;56184;51.986;5.760;2022-11-15T01:24:56;8.70;98.20
69082;DHT22;56184;51.986;5.760;2022-11-15T01:27:22;8.70;98.50
69082;DHT22;56184;51.986;5.760;2022-11-15T01:29:47;8.80;98.20
69082;DHT22;56184;51.986;5.760;2022-11-15T01:32:13;8.80;98.40
69082;DHT22;56184;51.986;5.760;2022-11-15T01:34:38;8.80;98.50
69082;DHT22;56184;51.986;5.760;2022-11-15T01:37:04;8.80;98.40
69082;DHT22;56184;51.986;5.760;2022-11-15T01:39:30;8.80;98.40
69082;DHT22;56184;51.986;5.760;2022-11-15T01:41:55;8.80;98.70
69082;DHT22;56184;51.986;5.760;2022-11-15T01:44:41;8.80;98.70
69082;DHT22;56184;51.986;5.760;2022-11-15T01:47:11;8.80;98.70
69082;DHT22;56184;51.986;5.760;2022-11-15T01:49:41;8.90;99.10
69082;DHT22;56184;51.986;5.760;2022-11-15T01:52:13;8.90;99.00
69082;DHT22;56184;51.986;5.760;2022-11-15T01:54:40;8.90;98.60
69082;DHT22;56184;51.986;5.760;2022-11-15T01:57:08;8.90;98.80
69082;DHT22;56184;51.986;5.760;2022-11-15T01:59:36;9.00;98.80
69082;DHT22;56184;51.986;5.760;2022-11-15T02:02:02;9.00;98.80
69082;DHT22;56184;51.986;5.760;2022-11-15T02:04:31;9.00;99.20
69082;DHT22;56184;51.986;5.760;2022-11-15T02:06:57;9.00;99.20
69082;DHT22;56184;51.986;5.760;2022-11-15T02:09:23;9.10;99.60
69082;DHT22;56184;51.986;5.760;2022-11-15T02:11:49;9.10;99.60
69082;DHT22;56184;51.986;5.760;2022-11-15T02:14:18;9.10;99.50
69082;DHT22;56184;51.986;5.760;2022-11-15T02:25:13;9.20;99.50
69082;DHT22;56184;51.986;5.760;2022-11-15T02:27:59;9.20;99.70
69082;DHT22;56184;51.986;5.760;2022-11-15T02:30:41;9.20;99.40
69082;DHT22;56184;51.986;5.760;2022-11-15T02:36:06;9.30;99.60
69082;DHT22;56184;51.986;5.760;2022-11-15T02:38:56;9.30;99.60
69082;DHT22;56184;51.986;5.760;2022-11-15T02:41:40;9.30;99.30
69082;DHT22;56184;51.986;5.760;2022-11-15T02:44:17;9.40;99.60
69082;DHT22;56184;51.986;5.760;2022-11-15T02:49:35;9.40;99.90
69082;DHT22;56184;51.986;5.760;2022-11-15T02:52:03;9.40;99.70
69082;DHT22;56184;51.986;5.760;2022-11-15T02:54:30;9.40;99.90
69082;DHT22;56184;51.986;5.760;2022-11-15T02:57:12;9.40;99.90
69082;DHT22;56184;51.986;5.760;2022-11-15T03:02:23;9.50;99.90
69082;DHT22;56184;51.986;5.760;2022-11-15T03:07:29;9.50;99.70
69082;DHT22;56184;51.986;5.760;2022-11-15T03:10:05;9.60;99.90
69082;DHT22;56184;51.986;5.760;2022-11-15T03:12:49;9.60;99.90
69082;DHT22;56184;51.986;5.760;2022-11-15T03:15:38;9.70;99.90
69082;DHT22;56184;51.986;5.760;2022-11-15T03:18:19;9.70;99.90
69082;DHT22;56184;51.986;5.760;2022-11-15T03:20:47;9.70;99.20
69082;DHT22;56184;51.986;5.760;2022-11-15T03:23:13;9.80;99.60
69082;DHT22;56184;51.986;5.760;2022-11-15T03:25:45;9.80;99.70
69082;DHT22;56184;51.986;5.760;2022-11-15T03:28:15;9.80;99.90
69082;DHT22;56184;51.986;5.760;2022-11-15T03:30:43;9.80;99.70
69082;DHT22;56184;51.986;5.760;2022-11-15T03:33:10;9.90;99.60
69082;DHT22;56184;51.986;5.760;2022-11-15T03:35:43;9.90;99.90
69082;DHT22;56184;51.986;5.760;2022-11-15T03:38:26;9.90;99.90
69082;DHT22;56184;51.986;5.760;2022-11-15T03:40:55;9.90;99.50
69082;DHT22;56184;51.986;5.760;2022-11-15T03:43:47;10.00;99.90
69082;DHT22;56184;51.986;5.760;2022-11-15T03:46:58;10.00;99.90
69082;DHT22;56184;51.986;5.760;2022-11-15T03:49:28;10.00;99.60
69082;DHT22;56184;51.986;5.760;2022-11-15T03:52:00;10.00;99.40
69082;DHT22;56184;51.986;5.760;2022-11-15T03:54:27;10.00;99.50
69082;DHT22;56184;51.986;5.760;2022-11-15T03:56:52;10.10;99.90
69082;DHT22;56184;51.986;5.760;2022-11-15T03:59:18;10.20;99.80
69082;DHT22;56184;51.986;5.760;2022-11-15T04:01:46;10.20;98.80
69082;DHT22;56184;51.986;5.760;2022-11-15T04:04:11;10.30;99.10
69082;DHT22;56184;51.986;5.760;2022-11-15T04:06:37;10.30;99.80
69082;DHT22;56184;51.986;5.760;2022-11-15T04:09:09;10.40;98.60
69082;DHT22;56184;51.986;5.760;2022-11-15T04:11:36;10.50;99.40
69082;DHT22;56184;51.986;5.760;2022-11-15T04:14:01;10.50;99.50
69082;DHT22;56184;51.986;5.760;2022-11-15T04:16:27;10.50;99.90
69082;DHT22;56184;51.986;5.760;2022-11-15T04:18:52;10.50;99.90
69082;DHT22;56184;51.986;5.760;2022-11-15T04:21:37;10.50;99.80
69082;DHT22;56184;51.986;5.760;2022-11-15T04:24:22;10.50;99.30
69082;DHT22;56184;51.986;5.760;2022-11-15T04:27:05;10.60;99.10
69082;DHT22;56184;51.986;5.760;2022-11-15T04:29:30;10.60;99.40
69082;DHT22;56184;51.986;5.760;2022-11-15T04:32:03;10.60;99.60
69082;DHT22;56184;51.986;5.760;2022-11-15T04:34:29;10.60;99.70
69082;DHT22;56184;51.986;5.760;2022-11-15T04:36:55;10.60;99.90
69082;DHT22;56184;51.986;5.760;2022-11-15T04:39:40;10.50;99.90
69082;DHT22;56184;51.986;5.760;2022-11-15T04:42:06;10.50;99.90
69082;DHT22;56184;51.986;5.760;2022-11-15T04:44:32;10.60;99.90
69082;DHT22;56184;51.986;5.760;2022-11-15T04:46:58;10.60;99.90
69082;DHT22;56184;51.986;5.760;2022-11-15T04:49:23;10.70;99.90
69082;DHT22;56184;51.986;5.760;2022-11-15T04:51:49;10.70;99.90
69082;DHT22;56184;51.986;5.760;2022-11-15T04:54:14;10.70;99.90
69082;DHT22;56184;51.986;5.760;2022-11-15T04:56:40;10.70;99.90
69082;DHT22;56184;51.986;5.760;2022-11-15T04:59:18;10.70;99.90
69082;DHT22;56184;51.986;5.760;2022-11-15T05:01:46;10.70;99.90
69082;DHT22;56184;51.986;5.760;2022-11-15T05:04:11;10.70;99.90
69082;DHT22;56184;51.986;5.760;2022-11-15T05:06:47;10.80;99.80
69082;DHT22;56184;51.986;5.760;2022-11-15T05:09:15;10.80;99.90
69082;DHT22;56184;51.986;5.760;2022-11-15T05:11:41;10.80;99.90
69082;DHT22;56184;51.986;5.760;2022-11-15T05:14:07;10.80;99.90
69082;DHT22;56184;51.986;5.760;2022-11-15T05:16:32;10.80;99.90
69082;DHT22;56184;51.986;5.760;2022-11-15T05:18:58;10.80;99.90
69082;DHT22;56184;51.986;5.760;2022-11-15T05:21:24;10.80;99.90
69082;DHT22;56184;51.986;5.760;2022-11-15T05:23:49;10.90;99.90
69082;DHT22;56184;51.986;5.760;2022-11-15T05:26:16;10.90;99.90
69082;DHT22;56184;51.986;5.760;2022-11-15T05:28:43;10.90;99.90
69082;DHT22;56184;51.986;5.760;2022-11-15T05:31:10;10.90;99.90
69082;DHT22;56184;51.986;5.760;2022-11-15T05:33:38;10.90;99.90
69082;DHT22;56184;51.986;5.760;2022-11-15T05:36:17;10.80;99.90
69082;DHT22;56184;51.986;5.760;2022-11-15T05:38:46;10.90;99.90
69082;DHT22;56184;51.986;5.760;2022-11-15T05:41:12;10.90;99.90
69082;DHT22;56184;51.986;5.760;2022-11-15T05:43:39;10.90;99.90
69082;DHT22;56184;51.986;5.760;2022-11-15T05:46:06;11.00;99.90
69082;DHT22;56184;51.986;5.760;2022-11-15T05:48:34;11.00;99.60
69082;DHT22;56184;51.986;5.760;2022-11-15T05:51:00;11.10;99.90
69082;DHT22;56184;51.986;5.760;2022-11-15T05:53:26;11.10;99.90
69082;DHT22;56184;51.986;5.760;2022-11-15T05:55:52;11.20;99.90
69082;DHT22;56184;51.986;5.760;2022-11-15T05:58:18;11.10;99.00
69082;DHT22;56184;51.986;5.760;2022-11-15T06:00:45;11.10;99.50
69082;DHT22;56184;51.986;5.760;2022-11-15T06:03:11;11.20;99.60
69082;DHT22;56184;51.986;5.760;2022-11-15T06:05:36;11.30;99.90
69082;DHT22;56184;51.986;5.760;2022-11-15T06:08:02;11.20;99.90
69082;DHT22;56184;51.986;5.760;2022-11-15T06:10:28;11.30;99.90
69082;DHT22;56184;51.986;5.760;2022-11-15T06:13:00;11.30;99.90
69082;DHT22;56184;51.986;5.760;2022-11-15T06:15:26;11.30;99.90
69082;DHT22;56184;51.986;5.760;2022-11-15T06:17:52;11.30;99.90
69082;DHT22;56184;51.986;5.760;2022-11-15T06:20:17;11.40;99.80
69082;DHT22;56184;51.986;5.760;2022-11-15T06:22:43;11.40;99.10
69082;DHT22;56184;51.986;5.760;2022-11-15T06:25:09;11.50;99.40
69082;DHT22;56184;51.986;5.760;2022-11-15T06:27:34;11.50;99.70
69082;DHT22;56184;51.986;5.760;2022-11-15T06:30:00;11.40;99.90
69082;DHT22;56184;51.986;5.760;2022-11-15T06:32:25;11.40;99.90
69082;DHT22;56184;51.986;5.760;2022-11-15T06:34:51;11.40;99.80
69082;DHT22;56184;51.986;5.760;2022-11-15T06:37:17;11.40;99.90
69082;DHT22;56184;51.986;5.760;2022-11-15T06:39:42;11.50;99.90
69082;DHT22;56184;51.986;5.760;2022-11-15T06:42:08;11.50;99.90
69082;DHT22;56184;51.986;5.760;2022-11-15T06:44:34;11.50;99.80
69082;DHT22;56184;51.986;5.760;2022-11-15T06:47:00;11.50;99.90
69082;DHT22;56184;51.986;5.760;2022-11-15T06:49:25;11.50;99.90
69082;DHT22;56184;51.986;5.760;2022-11-15T06:51:51;11.50;99.90
69082;DHT22;56184;51.986;5.760;2022-11-15T06:54:16;11.50;99.90
69082;DHT22;56184;51.986;5.760;2022-11-15T06:56:42;11.50;99.90
69082;DHT22;56184;51.986;5.760;2022-11-15T06:59:07;11.50;99.90
69082;DHT22;56184;51.986;5.760;2022-11-15T07:01:33;11.50;99.90
69082;DHT22;56184;51.986;5.760;2022-11-15T07:03:58;11.50;99.90
69082;DHT22;56184;51.986;5.760;2022-11-15T07:06:24;11.50;99.90
69082;DHT22;56184;51.986;5.760;2022-11-15T07:08:49;11.50;99.90
69082;DHT22;56184;51.986;5.760;2022-11-15T07:11:15;11.50;99.90
69082;DHT22;56184;51.986;5.760;2022-11-15T07:13:40;11.50;99.90
69082;DHT22;56184;51.986;5.760;2022-11-15T07:16:08;11.50;99.90
69082;DHT22;56184;51.986;5.760;2022-11-15T07:18:35;11.50;99.90
69082;DHT22;56184;51.986;5.760;2022-11-15T07:21:06;11.50;99.80
69082;DHT22;56184;51.986;5.760;2022-11-15T07:23:31;11.50;99.90
69082;DHT22;56184;51.986;5.760;2022-11-15T07:25:58;11.60;99.90
69082;DHT22;56184;51.986;5.760;2022-11-15T07:28:25;11.60;99.50
69082;DHT22;56184;51.986;5.760;2022-11-15T07:30:50;11.60;99.30
69082;DHT22;56184;51.986;5.760;2022-11-15T07:33:16;11.70;99.60
69082;DHT22;56184;51.986;5.760;2022-11-15T07:35:41;11.70;99.90
69082;DHT22;56184;51.986;5.760;2022-11-15T07:38:08;11.70;99.90
69082;DHT22;56184;51.986;5.760;2022-11-15T07:40:33;11.70;99.90
69082;DHT22;56184;51.986;5.760;2022-11-15T07:43:04;11.70;99.90
69082;DHT22;56184;51.986;5.760;2022-11-15T07:45:30;11.70;99.90
69082;DHT22;56184;51.986;5.760;2022-11-15T07:47:57;11.70;99.90
69082;DHT22;56184;51.986;5.760;2022-11-15T07:50:23;11.80;99.90
69082;DHT22;56184;51.986;5.760;2022-11-15T07:52:56;11.80;99.40
69082;DHT22;56184;51.986;5.760;2022-11-15T07:55:23;11.80;99.70
69082;DHT22;56184;51.986;5.760;2022-11-15T07:57:49;11.80;99.50
69082;DHT22;56184;51.986;5.760;2022-11-15T08:00:21;11.90;99.80
69082;DHT22;56184;51.986;5.760;2022-11-15T08:02:47;11.90;99.70
69082;DHT22;56184;51.986;5.760;2022-11-15T08:05:12;11.90;99.40
69082;DHT22;56184;51.986;5.760;2022-11-15T08:07:44;11.90;99.40
69082;DHT22;56184;51.986;5.760;2022-11-15T08:10:10;11.80;99.60
69082;DHT22;56184;51.986;5.760;2022-11-15T08:12:37;11.90;99.20
69082;DHT22;56184;51.986;5.760;2022-11-15T08:15:02;11.90;98.80
69082;DHT22;56184;51.986;5.760;2022-11-15T08:17:28;11.90;99.30
69082;DHT22;56184;51.986;5.760;2022-11-15T08:19:58;11.90;99.00
69082;DHT22;56184;51.986;5.760;2022-11-15T08:22:23;12.00;99.00
69082;DHT22;56184;51.986;5.760;2022-11-15T08:24:49;12.00;98.90
69082;DHT22;56184;51.986;5.760;2022-11-15T08:27:15;12.10;99.00
69082;DHT22;56184;51.986;5.760;2022-11-15T08:29:42;12.10;98.70
69082;DHT22;56184;51.986;5.760;2022-11-15T08:32:08;12.20;99.20
69082;DHT22;56184;51.986;5.760;2022-11-15T08:34:34;12.20;99.10
69082;DHT22;56184;51.986;5.760;2022-11-15T08:36:59;12.20;99.10
69082;DHT22;56184;51.986;5.760;2022-11-15T08:39:25;12.30;98.70
69082;DHT22;56184;51.986;5.760;2022-11-15T08:41:50;12.30;98.20
69082;DHT22;56184;51.986;5.760;2022-11-15T08:44:16;12.30;98.30
69082;DHT22;56184;51.986;5.760;2022-11-15T08:46:41;12.40;98.90
69082;DHT22;56184;51.986;5.760;2022-11-15T08:49:07;12.40;98.70
69082;DHT22;56184;51.986;5.760;2022-11-15T08:51:33;12.50;97.90
69082;DHT22;56184;51.986;5.760;2022-11-15T08:53:58;12.60;97.30
69082;DHT22;56184;51.986;5.760;2022-11-15T08:56:24;12.60;97.80
69082;DHT22;56184;51.986;5.760;2022-11-15T08:58:49;12.60;98.00
69082;DHT22;56184;51.986;5.760;2022-11-15T09:01:20;12.60;97.80
69082;DHT22;56184;51.986;5.760;2022-11-15T09:03:46;12.70;97.80
69082;DHT22;56184;51.986;5.760;2022-11-15T09:06:11;12.70;97.20
69082;DHT22;56184;51.986;5.760;2022-11-15T09:08:37;12.80;97.60
69082;DHT22;56184;51.986;5.760;2022-11-15T09:11:07;12.80;96.70
69082;DHT22;56184;51.986;5.760;2022-11-15T09:13:49;12.80;97.30
69082;DHT22;56184;51.986;5.760;2022-11-15T09:16:15;12.80;97.40
69082;DHT22;56184;51.986;5.760;2022-11-15T09:18:41;12.80;96.90
69082;DHT22;56184;51.986;5.760;2022-11-15T09:21:07;12.80;97.30
69082;DHT22;56184;51.986;5.760;2022-11-15T09:23:33;12.80;97.70
69082;DHT22;56184;51.986;5.760;2022-11-15T09:26:00;12.80;97.20
69082;DHT22;56184;51.986;5.760;2022-11-15T09:28:27;12.80;96.70
69082;DHT22;56184;51.986;5.760;2022-11-15T09:31:02;12.90;97.10
69082;DHT22;56184;51.986;5.760;2022-11-15T09:33:28;13.00;96.60
69082;DHT22;56184;51.986;5.760;2022-11-15T09:35:54;13.00;96.20
69082;DHT22;56184;51.986;5.760;2022-11-15T09:38:24;13.10;96.30
69082;DHT22;56184;51.986;5.760;2022-11-15T09:40:54;13.10;95.80
69082;DHT22;56184;51.986;5.760;2022-11-15T09:43:35;13.20;96.10
69082;DHT22;56184;51.986;5.760;2022-11-15T09:51:28;13.60;95.30
69082;DHT22;56184;51.986;5.760;2022-11-15T09:56:42;13.50;94.80
69082;DHT22;56184;51.986;5.760;2022-11-15T10:04:33;13.80;95.00
69082;DHT22;56184;51.986;5.760;2022-11-15T10:07:06;13.80;95.30
69082;DHT22;56184;51.986;5.760;2022-11-15T10:12:33;13.70;93.50
69082;DHT22;56184;51.986;5.760;2022-11-15T10:15:04;13.60;94.50
69082;DHT22;56184;51.986;5.760;2022-11-15T10:20:25;13.50;94.60
69082;DHT22;56184;51.986;5.760;2022-11-15T10:22:55;13.60;94.60
69082;DHT22;56184;51.986;5.760;2022-11-15T10:25:32;13.60;94.40
69082;DHT22;56184;51.986;5.760;2022-11-15T10:28:22;13.70;94.00
69082;DHT22;56184;51.986;5.760;2022-11-15T10:30:52;13.70;93.70
69082;DHT22;56184;51.986;5.760;2022-11-15T10:33:58;13.60;94.20
69082;DHT22;56184;51.986;5.760;2022-11-15T10:36:18;13.70;94.10
69082;DHT22;56184;51.986;5.760;2022-11-15T10:41:18;13.70;94.00
69082;DHT22;56184;51.986;5.760;2022-11-15T10:43:45;13.70;92.90
69082;DHT22;56184;51.986;5.760;2022-11-15T10:46:23;13.70;93.10
69082;DHT22;56184;51.986;5.760;2022-11-15T10:48:49;13.80;92.80
69082;DHT22;56184;51.986;5.760;2022-11-15T10:51:24;13.80;93.70
69082;DHT22;56184;51.986;5.760;2022-11-15T10:53:54;13.70;93.50
69082;DHT22;56184;51.986;5.760;2022-11-15T10:56:22;13.70;93.70
69082;DHT22;56184;51.986;5.760;2022-11-15T10:58:57;13.60;93.20
69082;DHT22;56184;51.986;5.760;2022-11-15T11:01:23;13.60;93.10
69082;DHT22;56184;51.986;5.760;2022-11-15T11:06:29;13.70;93.40
69082;DHT22;56184;51.986;5.760;2022-11-15T11:09:00;13.70;93.00
69082;DHT22;56184;51.986;5.760;2022-11-15T11:14:12;13.70;92.40
69082;DHT22;56184;51.986;5.760;2022-11-15T11:16:43;13.70;92.70
69082;DHT22;56184;51.986;5.760;2022-11-15T11:25:17;13.60;92.30
69082;DHT22;56184;51.986;5.760;2022-11-15T11:36:06;13.70;91.40
69082;DHT22;56184;51.986;5.760;2022-11-15T11:47:17;13.70;91.50
69082;DHT22;56184;51.986;5.760;2022-11-15T11:49:51;13.60;90.90
69082;DHT22;56184;51.986;5.760;2022-11-15T11:55:23;13.60;91.10
69082;DHT22;56184;51.986;5.760;2022-11-15T11:58:14;13.60;90.70
69082;DHT22;56184;51.986;5.760;2022-11-15T12:00:46;13.60;90.40
69082;DHT22;56184;51.986;5.760;2022-11-15T12:06:14;13.60;90.60
69082;DHT22;56184;51.986;5.760;2022-11-15T12:08:58;13.70;90.10
69082;DHT22;56184;51.986;5.760;2022-11-15T12:11:38;13.60;88.30
69082;DHT22;56184;51.986;5.760;2022-11-15T12:14:16;13.70;88.80
69082;DHT22;56184;51.986;5.760;2022-11-15T12:16:44;13.70;88.10
69082;DHT22;56184;51.986;5.760;2022-11-15T12:19:10;13.70;90.10
69082;DHT22;56184;51.986;5.760;2022-11-15T12:28:03;13.80;90.40
69082;DHT22;56184;51.986;5.760;2022-11-15T12:30:39;13.90;90.00
69082;DHT22;56184;51.986;5.760;2022-11-15T12:36:00;14.00;89.10
69082;DHT22;56184;51.986;5.760;2022-11-15T12:38:56;14.00;89.40
69082;DHT22;56184;51.986;5.760;2022-11-15T12:41:27;14.10;87.60
69082;DHT22;56184;51.986;5.760;2022-11-15T12:43:53;14.20;88.30
69082;DHT22;56184;51.986;5.760;2022-11-15T12:49:03;14.10;86.90
69082;DHT22;56184;51.986;5.760;2022-11-15T12:59:51;14.30;85.10
69082;DHT22;56184;51.986;5.760;2022-11-15T13:17:45;14.50;85.60
69082;DHT22;56184;51.986;5.760;2022-11-15T13:20:19;14.60;86.10
69082;DHT22;56184;51.986;5.760;2022-11-15T13:22:46;14.70;84.70
69082;DHT22;56184;51.986;5.760;2022-11-15T13:30:48;14.70;84.40
69082;DHT22;56184;51.986;5.760;2022-11-15T13:33:17;14.60;85.40
69082;DHT22;56184;51.986;5.760;2022-11-15T13:35:59;14.70;84.60
69082;DHT22;56184;51.986;5.760;2022-11-15T13:40:52;14.70;84.80
69082;DHT22;56184;51.986;5.760;2022-11-15T13:46:21;14.80;85.10
69082;DHT22;56184;51.986;5.760;2022-11-15T13:49:00;14.90;83.30
69082;DHT22;56184;51.986;5.760;2022-11-15T13:56:39;14.90;83.40
69082;DHT22;56184;51.986;5.760;2022-11-15T13:59:10;14.90;80.60
69082;DHT22;56184;51.986;5.760;2022-11-15T14:01:36;14.80;83.10
69082;DHT22;56184;51.986;5.760;2022-11-15T14:04:03;14.80;83.40
69082;DHT22;56184;51.986;5.760;2022-11-15T14:06:29;14.70;82.90
69082;DHT22;56184;51.986;5.760;2022-11-15T14:09:31;14.50;84.00
69082;DHT22;56184;51.986;5.760;2022-11-15T14:11:58;14.40;84.30
69082;DHT22;56184;51.986;5.760;2022-11-15T14:14:28;14.30;86.60
69082;DHT22;56184;51.986;5.760;2022-11-15T14:16:57;14.20;84.90
69082;DHT22;56184;51.986;5.760;2022-11-15T14:22:15;14.10;85.10
69082;DHT22;56184;51.986;5.760;2022-11-15T14:24:43;14.00;86.20
69082;DHT22;56184;51.986;5.760;2022-11-15T14:27:27;13.90;85.50
69082;DHT22;56184;51.986;5.760;2022-11-15T14:29:55;13.80;86.80
69082;DHT22;56184;51.986;5.760;2022-11-15T14:32:25;13.70;89.30
69082;DHT22;56184;51.986;5.760;2022-11-15T14:34:59;13.70;87.00
69082;DHT22;56184;51.986;5.760;2022-11-15T14:39:53;13.50;88.40
69082;DHT22;56184;51.986;5.760;2022-11-15T14:42:20;13.40;88.40
69082;DHT22;56184;51.986;5.760;2022-11-15T14:44:46;13.40;89.30
69082;DHT22;56184;51.986;5.760;2022-11-15T14:47:12;13.30;90.00
69082;DHT22;56184;51.986;5.760;2022-11-15T14:49:38;13.30;88.10
69082;DHT22;56184;51.986;5.760;2022-11-15T14:52:15;13.20;90.00
69082;DHT22;56184;51.986;5.760;2022-11-15T14:54:41;13.20;88.60
69082;DHT22;56184;51.986;5.760;2022-11-15T14:57:07;13.10;89.10
69082;DHT22;56184;51.986;5.760;2022-11-15T14:59:32;13.10;90.00
69082;DHT22;56184;51.986;5.760;2022-11-15T15:01:58;13.10;89.50
69082;DHT22;56184;51.986;5.760;2022-11-15T15:04:24;13.00;86.50
69082;DHT22;56184;51.986;5.760;2022-11-15T15:06:50;13.00;89.00
69082;DHT22;56184;51.986;5.760;2022-11-15T15:09:26;13.00;87.30
69082;DHT22;56184;51.986;5.760;2022-11-15T15:11:54;13.00;89.00
69082;DHT22;56184;51.986;5.760;2022-11-15T15:14:20;13.00;90.70
69082;DHT22;56184;51.986;5.760;2022-11-15T15:16:46;12.90;89.70
69082;DHT22;56184;51.986;5.760;2022-11-15T15:19:12;13.00;90.00
69082;DHT22;56184;51.986;5.760;2022-11-15T15:21:38;12.90;89.10
69082;DHT22;56184;51.986;5.760;2022-11-15T15:24:03;12.90;89.50
69082;DHT22;56184;51.986;5.760;2022-11-15T15:26:29;12.90;87.20
69082;DHT22;56184;51.986;5.760;2022-11-15T15:28:55;12.90;87.50
69082;DHT22;56184;51.986;5.760;2022-11-15T15:31:20;12.90;89.10
69082;DHT22;56184;51.986;5.760;2022-11-15T15:33:46;12.80;88.20
69082;DHT22;56184;51.986;5.760;2022-11-15T15:36:13;12.70;88.50
69082;DHT22;56184;51.986;5.760;2022-11-15T15:38:38;12.70;88.20
69082;DHT22;56184;51.986;5.760;2022-11-15T15:41:14;12.70;86.40
69082;DHT22;56184;51.986;5.760;2022-11-15T15:43:40;12.70;88.40
69082;DHT22;56184;51.986;5.760;2022-11-15T15:46:14;12.70;88.20
69082;DHT22;56184;51.986;5.760;2022-11-15T15:48:40;12.70;88.80
69082;DHT22;56184;51.986;5.760;2022-11-15T15:51:06;12.70;87.20
69082;DHT22;56184;51.986;5.760;2022-11-15T15:53:32;12.70;89.40
69082;DHT22;56184;51.986;5.760;2022-11-15T15:55:58;12.70;90.60
69082;DHT22;56184;51.986;5.760;2022-11-15T15:58:24;12.70;88.00
69082;DHT22;56184;51.986;5.760;2022-11-15T16:00:49;12.60;89.60
69082;DHT22;56184;51.986;5.760;2022-11-15T16:03:15;12.60;88.80
69082;DHT22;56184;51.986;5.760;2022-11-15T16:05:40;12.60;89.60
69082;DHT22;56184;51.986;5.760;2022-11-15T16:08:21;12.60;90.10
69082;DHT22;56184;51.986;5.760;2022-11-15T16:10:48;12.60;87.80
69082;DHT22;56184;51.986;5.760;2022-11-15T16:13:14;12.50;89.00
69082;DHT22;56184;51.986;5.760;2022-11-15T16:15:39;12.60;90.50
69082;DHT22;56184;51.986;5.760;2022-11-15T16:18:05;12.50;89.70
69082;DHT22;56184;51.986;5.760;2022-11-15T16:20:41;12.50;89.30
69082;DHT22;56184;51.986;5.760;2022-11-15T16:23:14;12.50;89.60
69082;DHT22;56184;51.986;5.760;2022-11-15T16:28:22;12.60;90.00
69082;DHT22;56184;51.986;5.760;2022-11-15T16:30:49;12.60;90.40
69082;DHT22;56184;51.986;5.760;2022-11-15T16:33:23;12.50;88.80
69082;DHT22;56184;51.986;5.760;2022-11-15T16:35:49;12.50;89.90
69082;DHT22;56184;51.986;5.760;2022-11-15T16:38:15;12.50;90.20
69082;DHT22;56184;51.986;5.760;2022-11-15T16:40:41;12.60;90.90
69082;DHT22;56184;51.986;5.760;2022-11-15T16:43:06;12.70;90.30
69082;DHT22;56184;51.986;5.760;2022-11-15T16:45:33;12.60;89.70
69082;DHT22;56184;51.986;5.760;2022-11-15T16:48:00;12.50;90.40
69082;DHT22;56184;51.986;5.760;2022-11-15T16:50:28;12.60;90.40
69082;DHT22;56184;51.986;5.760;2022-11-15T16:52:55;12.60;90.40
69082;DHT22;56184;51.986;5.760;2022-11-15T16:55:24;12.60;90.00
69082;DHT22;56184;51.986;5.760;2022-11-15T16:57:50;12.60;90.50
69082;DHT22;56184;51.986;5.760;2022-11-15T17:00:17;12.50;90.30
69082;DHT22;56184;51.986;5.760;2022-11-15T17:02:50;12.60;91.60
69082;DHT22;56184;51.986;5.760;2022-11-15T17:05:18;12.60;90.40
69082;DHT22;56184;51.986;5.760;2022-11-15T17:07:46;12.60;90.60
69082;DHT22;56184;51.986;5.760;2022-11-15T17:10:13;12.60;90.80
69082;DHT22;56184;51.986;5.760;2022-11-15T17:12:39;12.60;90.40
69082;DHT22;56184;51.986;5.760;2022-11-15T17:15:05;12.60;90.60
69082;DHT22;56184;51.986;5.760;2022-11-15T17:17:31;12.60;90.80
69082;DHT22;56184;51.986;5.760;2022-11-15T17:19:57;12.60;91.10
69082;DHT22;56184;51.986;5.760;2022-11-15T17:22:23;12.60;91.90
69082;DHT22;56184;51.986;5.760;2022-11-15T17:24:48;12.70;91.90
69082;DHT22;56184;51.986;5.760;2022-11-15T17:27:14;12.70;91.40
69082;DHT22;56184;51.986;5.760;2022-11-15T17:29:40;12.60;91.70
69082;DHT22;56184;51.986;5.760;2022-11-15T17:32:07;12.60;91.90
69082;DHT22;56184;51.986;5.760;2022-11-15T17:34:33;12.60;92.00
69082;DHT22;56184;51.986;5.760;2022-11-15T17:36:59;12.60;92.40
69082;DHT22;56184;51.986;5.760;2022-11-15T17:39:24;12.60;92.60
69082;DHT22;56184;51.986;5.760;2022-11-15T17:41:50;12.60;92.70
69082;DHT22;56184;51.986;5.760;2022-11-15T17:44:33;12.60;92.90
69082;DHT22;56184;51.986;5.760;2022-11-15T17:46:59;12.60;92.90
69082;DHT22;56184;51.986;5.760;2022-11-15T17:49:24;12.60;92.80
69082;DHT22;56184;51.986;5.760;2022-11-15T17:51:50;12.60;93.30
69082;DHT22;56184;51.986;5.760;2022-11-15T17:54:16;12.50;93.70
69082;DHT22;56184;51.986;5.760;2022-11-15T17:56:42;12.50;93.60
69082;DHT22;56184;51.986;5.760;2022-11-15T17:59:08;12.50;93.90
69082;DHT22;56184;51.986;5.760;2022-11-15T18:01:36;12.50;93.90